Accueil
METAR-TAF:

METAR-TAF

Aéroports :

Eskişehir, Turquie

latitude: 39-48-36N, longitude: 30-31-10E, altitude: 789 m

Observation

Le bulletin a été fait il y a 52 minutes, à 03:50 UTC
Vent calme
Température 0°C
Humidité 86%
Pression 1014 hPa
Visibilité 10 km ou plus
Nuages épars à une hauteur de 4000 ft
Nuages fragmentés à une hauteur de 10000 ft

METAR: LTBY 230350Z 00000KT 9999 SCT040 BKN100 M00/M02 Q1014

Heure: 07:42 (04:42 UTC)

Prévision

Le bulletin a été fait il y a 3 heures et 2 minutes, à 01:40 UTC
Prévision valable du 23 à 03 UTC au 23 à 12 UTC
Vent 2 kt de direction variable
Visibilité 10 km ou plus
Nuages épars à une hauteur de 3500 ft
Nuages fragmentés à une hauteur de 10000 ft

TAF: LTBY 230140Z 2303/2312 VRB02KT 9999 SCT035 BKN100

Observations et prévisions météorologiques de plus de 4000 aéroports (messages METAR et TAF).

Les stations disponibles sont représentées par des disques jaunes et rouges sur la carte.

Passer la souris dessus pour voir le nom de la station.

Cliquer dessus pour voir les observations et prévisions météorologiques.

Pour changer de carte: cliquez sur les boutons verts avec une croix noire pour zoomer, sur le bouton vert avec un tiret pour effectuer un zoom arrière, ou sur les flèches vertes pour les cartes adjacentes.


METAR-TAF: